Time;durP1;ratioP1;P1;durP2;ratioP2;P2;SDS_P1;SDS_P2;PMS_P1;PMS_P2;Temp;Humidity;BMP_temperature;BMP_pressure;BME280_temperature;BME280_humidity;BME280_pressure;Samples;Min_cycle;Max_cycle;Signal;HPM_P1;HPM_P2
2021/08/21 00:00:20;;;;;;;12.02;7.95;;;17.40;99.90;;;;;;5002391;28;20042;-81
2021/08/21 00:02:48;;;;;;;9.63;8.05;;;17.40;99.90;;;;;;5002387;28;20490;-82
2021/08/21 00:05:15;;;;;;;10.38;8.52;;;17.40;99.90;;;;;;5002084;28;20046;-81
2021/08/21 00:07:42;;;;;;;10.65;8.65;;;17.40;99.90;;;;;;5006352;28;20073;-84
2021/08/21 00:10:10;;;;;;;13.23;8.65;;;17.30;99.90;;;;;;5002697;28;20138;-84
2021/08/21 00:12:37;;;;;;;12.63;9.05;;;17.30;99.90;;;;;;5000644;28;20046;-84
2021/08/21 00:15:08;;;;;;;13.68;8.75;;;17.30;99.90;;;;;;5001600;28;20114;-82
2021/08/21 00:17:36;;;;;;;10.77;8.52;;;17.30;99.90;;;;;;5003487;28;20054;-82
2021/08/21 00:20:05;;;;;;;12.48;9.25;;;17.30;99.90;;;;;;5006654;28;20122;-82
2021/08/21 00:22:32;;;;;;;10.13;8.38;;;17.30;99.90;;;;;;5007675;28;20050;-82
2021/08/21 00:24:59;;;;;;;12.45;8.82;;;17.30;99.90;;;;;;5008312;28;20053;-80
2021/08/21 00:27:26;;;;;;;10.95;8.77;;;17.30;99.90;;;;;;5007141;28;20496;-85
2021/08/21 00:29:52;;;;;;;13.88;9.35;;;17.30;99.90;;;;;;5001392;28;20057;-81
2021/08/21 00:32:19;;;;;;;10.93;9.38;;;17.20;99.90;;;;;;4999664;28;20070;-82
2021/08/21 00:34:46;;;;;;;14.35;9.05;;;17.20;99.90;;;;;;5002041;28;20073;-83
2021/08/21 00:37:14;;;;;;;13.18;8.70;;;17.20;99.90;;;;;;4992067;28;20054;-79
2021/08/21 00:39:41;;;;;;;14.93;9.20;;;17.20;99.90;;;;;;4998377;28;20118;-79
2021/08/21 00:42:09;;;;;;;12.75;8.57;;;17.20;99.90;;;;;;4999777;28;20054;-81
2021/08/21 00:44:37;;;;;;;10.18;8.20;;;17.10;99.90;;;;;;4998468;28;20047;-80
2021/08/21 00:47:09;;;;;;;11.25;8.93;;;17.10;99.90;;;;;;5000048;28;20050;-82
2021/08/21 00:49:37;;;;;;;9.45;8.45;;;17.00;99.90;;;;;;5001368;28;20049;-84
2021/08/21 00:52:07;;;;;;;11.25;8.93;;;17.00;99.90;;;;;;5001015;28;20085;-82
2021/08/21 00:54:35;;;;;;;9.55;8.27;;;16.90;99.90;;;;;;4998999;28;20106;-80
2021/08/21 00:57:04;;;;;;;11.75;8.90;;;16.90;99.90;;;;;;4998840;28;20086;-81
2021/08/21 00:59:33;;;;;;;12.65;8.65;;;16.90;99.90;;;;;;5000070;28;20051;-82
2021/08/21 01:02:01;;;;;;;11.45;8.75;;;16.90;99.90;;;;;;5004619;28;20089;-84
2021/08/21 01:04:29;;;;;;;10.35;8.43;;;16.80;99.90;;;;;;5004371;28;20082;-83
2021/08/21 01:06:56;;;;;;;12.68;8.25;;;16.80;99.90;;;;;;5006425;28;20088;-86
2021/08/21 01:09:23;;;;;;;14.85;8.40;;;16.80;99.90;;;;;;5006189;28;20066;-83
2021/08/21 01:11:51;;;;;;;12.75;9.40;;;16.80;99.90;;;;;;5006222;28;20058;-84
2021/08/21 01:14:18;;;;;;;10.20;8.95;;;16.80;99.90;;;;;;5005310;28;20133;-82
2021/08/21 01:16:45;;;;;;;12.18;8.65;;;16.80;99.90;;;;;;5006611;28;20595;-83
2021/08/21 01:19:14;;;;;;;10.48;8.48;;;16.80;99.90;;;;;;5008088;28;20046;-81
2021/08/21 01:21:40;;;;;;;11.93;8.68;;;16.70;99.90;;;;;;5008322;28;20054;-82
2021/08/21 01:24:07;;;;;;;10.68;8.35;;;16.70;99.90;;;;;;5006261;28;20046;-83
2021/08/21 01:26:34;;;;;;;9.85;8.73;;;16.60;99.90;;;;;;5006539;28;20091;-82
2021/08/21 01:29:03;;;;;;;15.77;9.50;;;16.50;99.90;;;;;;5006563;28;20115;-81
2021/08/21 01:31:29;;;;;;;15.68;10.00;;;16.30;99.90;;;;;;5006317;28;20133;-83
2021/08/21 01:33:56;;;;;;;11.70;9.65;;;16.30;99.90;;;;;;5007179;28;20137;-83
2021/08/21 01:36:23;;;;;;;14.50;10.18;;;16.20;99.90;;;;;;5006519;28;20069;-81
2021/08/21 01:38:57;;;;;;;14.48;10.65;;;16.20;99.90;;;;;;5006843;28;20119;-81
2021/08/21 01:41:24;;;;;;;13.20;10.60;;;16.10;99.90;;;;;;5005454;28;20470;-82
2021/08/21 01:43:51;;;;;;;14.70;10.35;;;16.10;99.90;;;;;;5004491;28;20085;-82
2021/08/21 01:46:19;;;;;;;14.25;10.70;;;16.10;99.90;;;;;;5004437;28;20584;-82
2021/08/21 01:48:46;;;;;;;13.65;10.52;;;16.10;99.90;;;;;;5004342;28;20054;-81
2021/08/21 01:51:13;;;;;;;11.60;10.30;;;16.10;99.90;;;;;;5004180;28;20074;-80
2021/08/21 01:53:40;;;;;;;13.40;10.30;;;16.10;99.90;;;;;;5004325;28;20050;-82
2021/08/21 01:56:07;;;;;;;13.25;10.52;;;16.10;99.90;;;;;;5003392;28;20050;-82
2021/08/21 01:58:34;;;;;;;14.27;10.85;;;16.10;99.90;;;;;;5004510;28;20050;-81
2021/08/21 02:01:04;;;;;;;12.32;10.40;;;16.10;99.90;;;;;;5003810;28;20129;-83
2021/08/21 02:03:32;;;;;;;16.50;10.70;;;16.10;99.90;;;;;;5004220;28;20073;-82
2021/08/21 02:05:59;;;;;;;12.23;10.63;;;16.10;99.90;;;;;;5003587;28;20157;-82
2021/08/21 02:08:26;;;;;;;11.90;10.45;;;16.10;99.90;;;;;;5005581;28;20054;-83
2021/08/21 02:10:53;;;;;;;10.60;9.32;;;16.10;99.90;;;;;;5005125;28;20137;-84
2021/08/21 02:13:20;;;;;;;12.57;9.75;;;16.20;99.90;;;;;;5002504;28;20125;-83
2021/08/21 02:15:46;;;;;;;12.77;10.07;;;16.20;99.90;;;;;;5002933;28;20118;-84
2021/08/21 02:18:13;;;;;;;11.10;9.65;;;16.10;99.90;;;;;;5003583;28;20153;-83
2021/08/21 02:20:41;;;;;;;12.45;9.82;;;16.10;99.90;;;;;;5003329;28;20490;-84
2021/08/21 02:23:08;;;;;;;17.15;10.52;;;16.00;99.90;;;;;;5002881;28;20046;-84
2021/08/21 02:25:35;;;;;;;13.55;9.30;;;16.00;99.90;;;;;;5002542;28;20113;-84
2021/08/21 02:28:07;;;;;;;14.18;10.25;;;15.90;99.90;;;;;;5003060;28;20084;-84
2021/08/21 02:30:37;;;;;;;11.30;9.93;;;15.90;99.90;;;;;;5001603;28;20050;-82
2021/08/21 02:33:04;;;;;;;13.50;10.02;;;15.80;99.90;;;;;;5004144;28;20057;-83
2021/08/21 02:35:31;;;;;;;11.88;10.20;;;15.80;99.90;;;;;;5000840;28;20050;-82
2021/08/21 02:38:00;;;;;;;13.52;10.30;;;15.80;99.90;;;;;;5002493;28;20145;-83
2021/08/21 02:40:27;;;;;;;18.13;10.55;;;15.80;99.90;;;;;;5003426;28;20575;-84
2021/08/21 02:42:54;;;;;;;12.05;9.70;;;15.80;99.90;;;;;;5002889;28;20399;-84
2021/08/21 02:45:21;;;;;;;13.30;9.75;;;15.90;99.90;;;;;;5004514;28;20081;-84
2021/08/21 02:47:48;;;;;;;13.23;9.60;;;15.90;99.90;;;;;;5005600;28;20077;-83
2021/08/21 02:50:15;;;;;;;12.60;10.00;;;15.90;99.90;;;;;;5004780;28;20086;-83
2021/08/21 02:52:45;;;;;;;17.17;10.60;;;15.90;99.90;;;;;;5004104;28;20109;-83
2021/08/21 02:55:13;;;;;;;12.05;10.40;;;15.90;99.90;;;;;;5007644;28;20055;-83
2021/08/21 02:57:40;;;;;;;16.33;10.70;;;15.90;99.90;;;;;;5009001;28;20126;-82
2021/08/21 03:00:08;;;;;;;14.00;10.68;;;15.90;99.90;;;;;;5008760;28;20089;-84
2021/08/21 03:02:35;;;;;;;15.90;10.25;;;15.80;99.90;;;;;;5007048;28;20115;-84
2021/08/21 03:05:02;;;;;;;12.57;10.90;;;15.80;99.90;;;;;;5004395;28;20144;-84
2021/08/21 03:07:28;;;;;;;13.52;10.63;;;15.70;99.90;;;;;;5004813;28;20086;-83
2021/08/21 03:09:55;;;;;;;12.43;10.48;;;15.70;99.90;;;;;;5004442;28;20074;-83
2021/08/21 03:12:24;;;;;;;15.10;10.63;;;15.70;99.90;;;;;;5005425;28;20078;-83
2021/08/21 03:14:51;;;;;;;15.00;11.27;;;15.70;99.90;;;;;;5005963;28;20186;-83
2021/08/21 03:17:18;;;;;;;15.68;10.25;;;15.80;99.90;;;;;;5004467;28;20054;-83
2021/08/21 03:19:45;;;;;;;13.15;10.52;;;15.80;99.90;;;;;;5004874;28;20507;-84
2021/08/21 03:22:12;;;;;;;17.50;10.27;;;15.70;99.90;;;;;;5004415;28;20085;-84
2021/08/21 03:29:43;;;;;;;16.75;9.95;;;15.90;99.90;;;;;;5019480;28;20069;-81
2021/08/21 03:32:11;;;;;;;16.50;10.18;;;15.90;99.90;;;;;;5020799;28;20077;-81
2021/08/21 03:34:38;;;;;;;14.70;9.63;;;15.90;99.90;;;;;;5021933;28;20362;-80
2021/08/21 03:37:06;;;;;;;15.00;10.80;;;15.90;99.90;;;;;;5022215;28;20121;-81
2021/08/21 03:39:32;;;;;;;14.57;10.30;;;15.90;99.90;;;;;;5022913;28;20399;-81
2021/08/21 03:41:59;;;;;;;12.80;9.93;;;15.90;99.90;;;;;;5022856;28;20058;-80
2021/08/21 03:44:26;;;;;;;14.43;9.25;;;15.90;99.90;;;;;;5022635;28;20267;-79
2021/08/21 03:46:55;;;;;;;14.55;10.43;;;15.90;99.90;;;;;;5022560;28;20129;-80
2021/08/21 03:49:22;;;;;;;11.50;9.57;;;15.90;99.90;;;;;;5023534;28;20125;-84
2021/08/21 03:51:49;;;;;;;14.82;10.18;;;15.90;99.90;;;;;;5022495;28;20081;-81
2021/08/21 03:54:16;;;;;;;17.50;9.77;;;15.80;99.90;;;;;;5023015;28;20367;-82
2021/08/21 03:56:43;;;;;;;13.20;9.95;;;15.80;99.90;;;;;;5023410;28;20084;-84
2021/08/21 03:59:10;;;;;;;13.18;9.88;;;15.80;99.90;;;;;;5023098;28;20149;-81
2021/08/21 04:01:41;;;;;;;11.00;9.80;;;15.80;99.90;;;;;;5023188;28;20104;-80
2021/08/21 04:04:09;;;;;;;12.90;9.95;;;15.80;99.90;;;;;;5023572;28;20058;-79
2021/08/21 04:06:38;;;;;;;13.07;9.95;;;15.80;99.90;;;;;;5024239;28;20085;-80
2021/08/21 04:09:05;;;;;;;14.57;9.68;;;15.70;99.90;;;;;;5024813;28;20050;-80
2021/08/21 04:11:31;;;;;;;12.88;9.40;;;15.70;99.90;;;;;;5023188;28;20149;-81
2021/08/21 04:13:58;;;;;;;12.35;9.57;;;15.70;99.90;;;;;;5019678;28;20131;-83
2021/08/21 04:16:25;;;;;;;12.35;9.85;;;15.70;99.90;;;;;;5020680;28;20046;-81
2021/08/21 04:18:52;;;;;;;12.10;9.88;;;15.70;99.90;;;;;;5021380;28;20133;-81
2021/08/21 04:21:20;;;;;;;15.80;10.07;;;15.70;99.90;;;;;;5023239;28;20217;-83
2021/08/21 04:23:47;;;;;;;13.55;10.00;;;15.70;99.90;;;;;;5022354;28;20046;-84
2021/08/21 04:26:14;;;;;;;12.15;9.70;;;15.60;99.90;;;;;;5019392;28;20137;-83
2021/08/21 04:28:41;;;;;;;12.63;9.57;;;15.60;99.90;;;;;;5022397;28;20081;-85
2021/08/21 04:31:08;;;;;;;13.02;9.63;;;15.60;99.90;;;;;;5024905;28;20037;-83
2021/08/21 04:33:35;;;;;;;15.25;9.98;;;15.60;99.90;;;;;;5024688;28;20053;-83
2021/08/21 04:36:02;;;;;;;13.05;9.95;;;15.50;99.90;;;;;;5006378;28;20082;-83
2021/08/21 04:38:32;;;;;;;12.45;10.00;;;15.50;99.90;;;;;;5011647;28;20088;-83
2021/08/21 04:40:59;;;;;;;15.88;10.18;;;15.50;99.90;;;;;;5023410;28;20046;-83
2021/08/21 04:43:26;;;;;;;14.40;10.32;;;15.40;99.90;;;;;;5021750;28;20049;-84
2021/08/21 04:45:53;;;;;;;14.00;9.27;;;15.40;99.90;;;;;;5021934;28;20105;-84
2021/08/21 04:48:19;;;;;;;13.98;10.13;;;15.40;99.90;;;;;;5022756;28;20050;-83
2021/08/21 04:50:46;;;;;;;13.65;10.25;;;15.40;99.90;;;;;;5025067;28;20049;-83
2021/08/21 04:53:13;;;;;;;13.07;10.52;;;15.40;99.90;;;;;;5024847;28;20050;-83
2021/08/21 04:55:41;;;;;;;12.50;10.40;;;15.40;99.90;;;;;;5020538;28;20437;-82
2021/08/21 04:58:08;;;;;;;15.02;10.63;;;15.50;99.90;;;;;;5019009;28;20128;-82
2021/08/21 05:00:35;;;;;;;13.40;10.05;;;15.50;99.90;;;;;;5021017;28;20050;-84
2021/08/21 05:03:02;;;;;;;12.70;10.40;;;15.50;99.90;;;;;;5022722;28;20089;-83
2021/08/21 05:05:30;;;;;;;14.40;10.30;;;15.50;99.90;;;;;;5022005;28;20102;-85
2021/08/21 05:07:57;;;;;;;12.88;10.23;;;15.50;99.90;;;;;;5022559;28;20089;-84
2021/08/21 05:10:24;;;;;;;12.98;9.98;;;15.50;99.90;;;;;;5021338;28;20544;-84
2021/08/21 05:12:52;;;;;;;14.60;10.95;;;15.50;99.90;;;;;;5021368;28;20125;-86
2021/08/21 05:15:19;;;;;;;16.85;10.85;;;15.50;99.90;;;;;;5020385;28;20137;-85
2021/08/21 05:17:47;;;;;;;11.38;10.18;;;15.60;99.90;;;;;;5025482;28;20418;-85
2021/08/21 05:20:18;;;;;;;12.93;9.38;;;15.70;99.90;;;;;;5026029;28;20050;-86
2021/08/21 05:23:02;;;;;;;13.25;9.52;;;15.70;99.90;;;;;;5023986;28;20407;-84
2021/08/21 05:25:29;;;;;;;11.38;9.65;;;15.80;99.90;;;;;;5025879;28;20060;-85
2021/08/21 05:27:57;;;;;;;12.52;9.50;;;15.90;99.90;;;;;;5018644;28;20133;-84
2021/08/21 05:30:27;;;;;;;12.00;9.35;;;15.90;99.90;;;;;;5015862;28;20053;-84
2021/08/21 05:32:55;;;;;;;12.50;9.55;;;16.10;99.90;;;;;;5015581;28;20049;-84
2021/08/21 05:35:22;;;;;;;10.82;9.57;;;16.20;99.90;;;;;;5015396;28;20045;-84
2021/08/21 05:37:48;;;;;;;11.85;9.07;;;16.30;99.90;;;;;;5016681;28;20136;-84
2021/08/21 05:40:16;;;;;;;10.77;8.82;;;16.40;99.90;;;;;;5017268;28;20053;-84
2021/08/21 05:42:42;;;;;;;11.40;8.50;;;16.60;99.90;;;;;;5019680;28;20092;-84
2021/08/21 05:45:11;;;;;;;13.13;8.57;;;16.70;99.90;;;;;;5019370;28;20050;-85
2021/08/21 05:47:38;;;;;;;10.38;8.90;;;16.80;99.90;;;;;;5022026;28;20110;-84
2021/08/21 05:50:06;;;;;;;9.35;7.60;;;16.90;99.90;;;;;;5023302;28;20045;-84
2021/08/21 05:52:33;;;;;;;11.15;8.50;;;17.00;99.90;;;;;;5023341;28;20203;-84
2021/08/21 05:55:00;;;;;;;10.27;8.23;;;17.20;99.90;;;;;;5022393;28;20647;-84
2021/08/21 05:57:27;;;;;;;10.10;8.18;;;17.30;99.90;;;;;;5023508;28;20133;-85
2021/08/21 05:59:54;;;;;;;10.20;7.65;;;17.40;99.90;;;;;;5023245;28;20418;-83
2021/08/21 06:02:22;;;;;;;9.20;8.15;;;17.50;99.90;;;;;;5019217;28;20053;-84
2021/08/21 06:04:49;;;;;;;8.68;7.55;;;17.70;99.90;;;;;;5020238;28;20115;-83
2021/08/21 06:07:16;;;;;;;10.73;7.82;;;17.80;99.90;;;;;;5019171;28;20453;-84
2021/08/21 06:09:43;;;;;;;12.57;8.43;;;18.00;99.90;;;;;;5018119;28;20136;-85
2021/08/21 06:12:10;;;;;;;8.48;7.60;;;18.10;99.90;;;;;;5019712;28;20137;-84
2021/08/21 06:14:39;;;;;;;11.40;7.95;;;18.20;99.90;;;;;;5018373;28;20149;-84
2021/08/21 06:17:06;;;;;;;10.70;8.55;;;18.20;99.90;;;;;;5019640;28;20046;-84
2021/08/21 06:19:34;;;;;;;9.35;8.13;;;18.20;99.90;;;;;;5019271;28;20150;-83
2021/08/21 06:22:01;;;;;;;9.57;8.23;;;18.10;99.90;;;;;;5021900;28;20164;-84
2021/08/21 06:24:28;;;;;;;9.85;8.02;;;18.10;99.90;;;;;;5020870;28;20077;-84
2021/08/21 06:26:55;;;;;;;10.88;8.45;;;18.00;99.90;;;;;;5022223;28;20128;-84
2021/08/21 06:29:22;;;;;;;11.63;8.95;;;18.10;99.90;;;;;;5022408;28;20066;-86
2021/08/21 06:31:49;;;;;;;10.35;8.57;;;18.00;99.90;;;;;;5022714;28;20157;-86
2021/08/21 06:34:17;;;;;;;9.23;7.97;;;18.10;99.90;;;;;;5023623;28;20105;-85
2021/08/21 06:36:46;;;;;;;8.95;7.57;;;18.10;99.90;;;;;;5023793;28;20090;-85
2021/08/21 06:39:12;;;;;;;10.27;8.20;;;18.30;99.90;;;;;;5025871;28;20061;-85
2021/08/21 06:41:39;;;;;;;9.77;7.30;;;18.60;99.90;;;;;;5025266;28;20050;-85
2021/08/21 06:44:06;;;;;;;8.05;7.20;;;19.00;99.90;;;;;;5024419;28;20077;-85
2021/08/21 06:46:33;;;;;;;9.20;7.57;;;19.30;99.90;;;;;;5025712;28;20132;-87
2021/08/21 06:49:00;;;;;;;8.20;7.20;;;19.60;99.90;;;;;;5024377;28;20088;-87
2021/08/21 06:51:27;;;;;;;10.93;7.72;;;19.90;99.90;;;;;;5024248;28;20073;-86
2021/08/21 06:53:55;;;;;;;8.02;7.30;;;20.10;99.90;;;;;;5024381;28;20526;-86
2021/08/21 06:56:22;;;;;;;8.70;7.07;;;20.50;99.90;;;;;;5022350;28;20161;-86
2021/08/21 06:58:49;;;;;;;9.20;7.00;;;20.90;99.90;;;;;;5019228;28;20545;-86
2021/08/21 07:01:15;;;;;;;8.25;7.32;;;21.10;99.90;;;;;;5019695;28;20443;-85
2021/08/21 07:03:42;;;;;;;11.50;7.75;;;21.40;99.90;;;;;;5019537;28;20085;-83
2021/08/21 07:06:09;;;;;;;10.00;6.90;;;21.80;99.90;;;;;;5019124;28;20129;-84
2021/08/21 07:08:36;;;;;;;9.85;6.93;;;22.00;99.90;;;;;;5019909;28;20054;-82
2021/08/21 07:11:04;;;;;;;8.13;7.30;;;21.80;99.90;;;;;;5019145;28;20061;-82
2021/08/21 07:13:31;;;;;;;8.93;6.82;;;22.00;99.90;;;;;;5016906;28;20053;-82
2021/08/21 07:15:58;;;;;;;10.57;6.63;;;22.20;99.90;;;;;;5017627;28;20046;-83
2021/08/21 07:18:25;;;;;;;7.15;6.45;;;22.60;99.90;;;;;;5016195;28;20141;-84
2021/08/21 07:20:52;;;;;;;9.00;6.70;;;23.00;99.90;;;;;;5021015;28;20058;-83
2021/08/21 07:23:19;;;;;;;9.43;6.70;;;23.20;99.90;;;;;;5010546;28;20533;-88
2021/08/21 07:25:47;;;;;;;10.23;7.40;;;23.60;99.90;;;;;;5019594;28;20110;-85
2021/08/21 07:28:16;;;;;;;9.32;6.72;;;23.60;99.90;;;;;;5020561;28;20046;-83
2021/08/21 07:30:42;;;;;;;8.45;7.53;;;23.90;99.90;;;;;;5019182;28;20481;-82
2021/08/21 07:33:10;;;;;;;8.70;6.53;;;24.00;99.90;;;;;;5019355;28;20073;-83
2021/08/21 07:35:37;;;;;;;8.40;6.70;;;24.10;99.90;;;;;;5020733;28;20537;-84
2021/08/21 07:38:05;;;;;;;8.05;6.50;;;24.00;99.90;;;;;;5018190;28;20073;-83
2021/08/21 07:40:34;;;;;;;6.97;6.28;;;23.60;99.90;;;;;;5011691;28;20046;-85
2021/08/21 07:43:01;;;;;;;9.43;6.88;;;23.60;99.90;;;;;;5013757;28;20085;-84
2021/08/21 07:45:32;;;;;;;7.75;6.22;;;24.10;99.90;;;;;;5014990;28;20120;-84
2021/08/21 07:47:59;;;;;;;6.97;6.28;;;24.00;99.90;;;;;;5004839;28;20062;-78
2021/08/21 07:50:26;;;;;;;6.55;5.68;;;24.40;99.90;;;;;;4995342;28;20129;-77
2021/08/21 07:52:52;;;;;;;7.43;5.85;;;24.70;99.90;;;;;;4995436;28;20487;-77
2021/08/21 07:55:19;;;;;;;8.35;5.68;;;25.00;99.90;;;;;;4995125;28;20089;-78
2021/08/21 07:57:46;;;;;;;7.07;5.95;;;24.90;99.90;;;;;;4997544;28;20082;-80
2021/08/21 08:00:14;;;;;;;6.93;6.20;;;25.10;99.90;;;;;;4994610;28;20476;-76
2021/08/21 08:02:45;;;;;;;8.75;5.70;;;25.00;99.90;;;;;;4994005;28;20050;-77
2021/08/21 08:05:12;;;;;;;6.25;5.35;;;25.30;99.90;;;;;;4993719;28;20050;-77
2021/08/21 08:07:39;;;;;;;6.88;5.70;;;25.60;99.90;;;;;;4993787;28;20072;-77
2021/08/21 08:10:08;;;;;;;7.40;6.57;;;25.70;99.90;;;;;;4993283;28;20050;-77
2021/08/21 08:12:34;;;;;;;7.47;6.10;;;25.60;99.90;;;;;;4995059;28;20050;-76
2021/08/21 08:15:01;;;;;;;8.13;6.10;;;25.90;99.90;;;;;;4993845;28;20129;-76
2021/08/21 08:17:28;;;;;;;7.78;6.03;;;25.90;99.90;;;;;;4994714;28;20156;-77
2021/08/21 08:19:57;;;;;;;7.05;6.35;;;25.90;99.90;;;;;;4994401;28;20457;-77
2021/08/21 08:22:25;;;;;;;7.03;6.32;;;25.70;99.90;;;;;;4994333;28;20110;-77
2021/08/21 08:24:52;;;;;;;8.73;6.65;;;25.30;99.90;;;;;;4994683;28;20396;-77
2021/08/21 08:27:19;;;;;;;7.93;6.55;;;25.10;99.90;;;;;;4993278;28;20491;-77
2021/08/21 08:29:46;;;;;;;7.22;6.40;;;24.80;99.90;;;;;;4995030;28;20474;-78
2021/08/21 08:32:13;;;;;;;7.82;7.03;;;24.80;99.90;;;;;;4994339;28;20058;-77
2021/08/21 08:34:40;;;;;;;7.72;6.40;;;24.70;99.90;;;;;;4995011;28;20566;-78
2021/08/21 08:37:12;;;;;;;7.90;7.10;;;24.80;99.90;;;;;;4995519;28;20429;-77
2021/08/21 08:39:39;;;;;;;8.40;7.10;;;24.80;99.90;;;;;;4994898;28;20112;-77
2021/08/21 08:42:09;;;;;;;8.20;7.38;;;24.70;99.90;;;;;;4994941;28;20114;-77
2021/08/21 08:44:38;;;;;;;7.65;6.63;;;24.80;99.90;;;;;;4995057;28;20050;-76
2021/08/21 08:47:05;;;;;;;10.73;7.00;;;24.80;99.90;;;;;;4995107;28;20054;-76
2021/08/21 08:49:32;;;;;;;10.18;6.85;;;25.00;99.90;;;;;;4995044;28;20137;-77
2021/08/21 08:51:59;;;;;;;7.25;6.20;;;24.70;99.90;;;;;;4994287;28;20058;-79
2021/08/21 08:54:27;;;;;;;8.77;6.07;;;24.90;99.90;;;;;;4995087;28;20485;-78
2021/08/21 08:56:54;;;;;;;9.70;6.03;;;25.50;99.90;;;;;;4995237;28;20047;-76
2021/08/21 08:59:21;;;;;;;6.60;5.78;;;25.80;99.90;;;;;;4994873;28;20050;-77
2021/08/21 09:01:48;;;;;;;9.35;6.80;;;25.60;99.90;;;;;;4994882;28;20085;-77
2021/08/21 09:04:18;;;;;;;7.03;5.50;;;25.40;99.90;;;;;;4994744;28;20440;-77
2021/08/21 09:06:45;;;;;;;6.75;5.78;;;25.10;99.90;;;;;;4996027;28;20132;-76
2021/08/21 09:09:13;;;;;;;8.30;5.95;;;24.70;99.90;;;;;;4995406;28;20073;-77
2021/08/21 09:11:47;;;;;;;8.40;5.85;;;24.90;99.90;;;;;;4994873;28;20430;-77
2021/08/21 09:14:21;;;;;;;6.22;5.45;;;24.90;99.90;;;;;;4993762;28;20050;-79
2021/08/21 09:16:48;;;;;;;7.25;5.80;;;25.10;99.90;;;;;;4993902;28;20052;-76
2021/08/21 09:19:24;;;;;;;10.60;6.82;;;25.30;99.90;;;;;;4994589;28;20089;-78
2021/08/21 09:22:02;;;;;;;8.05;6.57;;;25.30;99.90;;;;;;4996846;28;20050;-78
2021/08/21 09:24:29;;;;;;;7.70;6.30;;;25.30;99.90;;;;;;4998960;28;20050;-78
2021/08/21 09:27:15;;;;;;;7.28;5.25;;;25.10;99.90;;;;;;5000577;28;20098;-77
2021/08/21 09:29:42;;;;;;;7.63;5.60;;;25.00;99.90;;;;;;5035351;23;20517;-86
2021/08/21 09:32:10;;;;;;;6.60;5.80;;;25.10;99.90;;;;;;5013761;28;20597;-85
2021/08/21 09:34:38;;;;;;;6.90;5.65;;;25.20;99.90;;;;;;5005578;28;20105;-85
2021/08/21 09:37:08;;;;;;;6.38;5.28;;;25.20;99.90;;;;;;5004616;28;20575;-85
2021/08/21 09:39:39;;;;;;;6.60;5.20;;;25.30;99.90;;;;;;5004823;28;20046;-85
2021/08/21 09:42:08;;;;;;;7.13;5.65;;;25.30;99.90;;;;;;5004788;28;20137;-85
2021/08/21 09:44:36;;;;;;;6.40;5.43;;;25.30;99.90;;;;;;5011271;28;20085;-83
2021/08/21 09:47:23;;;;;;;7.40;5.22;;;25.20;99.90;;;;;;5010651;28;20084;-86
2021/08/21 09:49:52;;;;;;;8.15;5.40;;;24.90;99.90;;;;;;5011119;28;20058;-82
2021/08/21 09:52:19;;;;;;;6.88;5.18;;;24.50;99.90;;;;;;5009211;28;20050;-83
2021/08/21 09:55:03;;;;;;;8.77;5.20;;;24.40;99.90;;;;;;5003278;28;20110;-83
2021/08/21 09:57:32;;;;;;;6.38;5.03;;;24.40;99.90;;;;;;5004405;28;20081;-81
2021/08/21 10:00:00;;;;;;;7.35;5.20;;;24.40;99.90;;;;;;5004437;28;20129;-82
2021/08/21 10:02:32;;;;;;;5.55;4.95;;;24.30;99.90;;;;;;5006934;28;20524;-83
2021/08/21 10:05:01;;;;;;;6.25;5.10;;;24.40;99.90;;;;;;5008313;28;20082;-83
2021/08/21 10:07:33;;;;;;;6.68;5.20;;;24.40;99.90;;;;;;5006308;28;20088;-83
2021/08/21 10:10:02;;;;;;;7.65;5.80;;;24.60;99.90;;;;;;5005599;28;20061;-83
2021/08/21 10:12:31;;;;;;;7.00;5.47;;;24.60;99.90;;;;;;5005178;28;20046;-83
2021/08/21 10:15:00;;;;;;;5.70;5.03;;;24.50;99.90;;;;;;5004359;28;20078;-82
2021/08/21 10:17:28;;;;;;;6.65;4.53;;;24.60;99.90;;;;;;5003953;28;20106;-82
2021/08/21 10:19:56;;;;;;;7.07;5.40;;;24.70;99.90;;;;;;5004435;28;20054;-82
2021/08/21 10:22:29;;;;;;;6.65;5.30;;;24.60;99.90;;;;;;5003246;28;20085;-78
2021/08/21 10:25:03;;;;;;;5.30;4.57;;;24.70;99.90;;;;;;5020812;28;20068;-80
2021/08/21 10:27:37;;;;;;;7.60;5.15;;;24.90;99.90;;;;;;5024034;28;20137;-83
2021/08/21 10:30:06;;;;;;;6.45;4.90;;;24.90;99.90;;;;;;5015544;28;20046;-82
2021/08/21 10:32:35;;;;;;;6.68;5.20;;;25.10;99.90;;;;;;5016107;28;20077;-82
2021/08/21 10:35:04;;;;;;;5.90;4.85;;;25.10;99.90;;;;;;5005090;28;20506;-82
2021/08/21 10:37:33;;;;;;;7.43;5.43;;;25.10;99.90;;;;;;5003491;28;20137;-82
2021/08/21 10:40:20;;;;;;;5.45;4.82;;;25.40;99.90;;;;;;5011315;28;20049;-83
2021/08/21 10:42:54;;;;;;;5.90;5.10;;;25.50;99.90;;;;;;5017531;28;20113;-81
2021/08/21 10:45:46;;;;;;;8.30;4.90;;;25.60;99.90;;;;;;5004750;28;20050;-81
2021/08/21 10:48:14;;;;;;;5.53;4.07;;;25.50;99.90;;;;;;5007805;28;20084;-81
2021/08/21 10:50:45;;;;;;;5.65;4.30;;;25.70;99.90;;;;;;5009103;28;20142;-82
2021/08/21 10:53:22;;;;;;;4.90;4.13;;;25.80;99.90;;;;;;5008307;28;20080;-80
2021/08/21 10:55:49;;;;;;;7.50;5.47;;;25.90;99.90;;;;;;5010673;28;20081;-81
2021/08/21 10:58:19;;;;;;;6.85;5.55;;;25.60;99.90;;;;;;5019125;28;20129;-82
2021/08/21 11:00:58;;;;;;;5.50;4.20;;;25.60;99.90;;;;;;5020990;28;20085;-82
2021/08/21 11:03:58;;;;;;;4.32;3.78;;;25.70;99.90;;;;;;5020764;28;20057;-82
2021/08/21 11:06:33;;;;;;;4.97;3.70;;;25.80;99.90;;;;;;5020732;28;20069;-81
2021/08/21 11:09:08;;;;;;;4.10;3.65;;;26.00;99.90;;;;;;5021863;28;20076;-82
2021/08/21 11:11:43;;;;;;;5.63;3.90;;;26.20;99.90;;;;;;5019348;28;20181;-82
2021/08/21 11:14:28;;;;;;;4.75;4.22;;;26.20;99.90;;;;;;5018207;28;20050;-81
2021/08/21 11:16:57;;;;;;;5.85;5.15;;;26.00;99.90;;;;;;5005116;28;20151;-81
2021/08/21 11:19:36;;;;;;;6.80;4.13;;;26.00;99.90;;;;;;5016148;28;20145;-82
2021/08/21 11:22:24;;;;;;;5.47;4.65;;;26.00;99.90;;;;;;4999351;28;20078;-81
2021/08/21 11:25:07;;;;;;;6.10;5.30;;;25.90;99.90;;;;;;5012858;28;20084;-79
2021/08/21 11:27:39;;;;;;;8.25;5.97;;;25.90;99.90;;;;;;5010013;28;20077;-81
2021/08/21 11:30:28;;;;;;;7.22;4.70;;;25.80;99.90;;;;;;5009313;28;20132;-79
2021/08/21 11:32:58;;;;;;;5.00;4.18;;;26.00;99.90;;;;;;5007001;28;20102;-78
2021/08/21 11:35:27;;;;;;;6.18;4.50;;;25.90;99.90;;;;;;5002858;28;20058;-79
2021/08/21 11:37:56;;;;;;;6.40;4.75;;;26.10;99.90;;;;;;5004012;28;20395;-80
2021/08/21 11:40:32;;;;;;;5.60;4.35;;;26.20;99.90;;;;;;5007921;28;20208;-79
2021/08/21 11:43:00;;;;;;;7.45;4.80;;;26.30;99.90;;;;;;5009245;28;20061;-80
2021/08/21 11:45:28;;;;;;;5.28;4.25;;;26.30;99.90;;;;;;5005404;28;20050;-77
2021/08/21 11:47:57;;;;;;;5.97;4.40;;;26.30;99.90;;;;;;5007582;28;20158;-80
2021/08/21 11:50:28;;;;;;;8.40;4.53;;;26.20;99.90;;;;;;5007295;28;20049;-78
2021/08/21 11:52:57;;;;;;;5.38;4.75;;;26.30;99.90;;;;;;5000740;28;20112;-77
2021/08/21 11:55:25;;;;;;;5.15;4.60;;;26.40;99.90;;;;;;5013217;28;20165;-79
2021/08/21 11:57:55;;;;;;;6.90;5.00;;;26.60;99.90;;;;;;5005152;28;20084;-80
2021/08/21 12:00:24;;;;;;;6.25;4.82;;;26.60;99.90;;;;;;5007516;28;20054;-80
2021/08/21 12:02:55;;;;;;;6.13;5.20;;;26.60;99.90;;;;;;5014575;28;20213;-78
2021/08/21 12:05:36;;;;;;;9.30;5.10;;;26.40;99.90;;;;;;5002368;28;20049;-77
2021/08/21 12:08:21;;;;;;;6.32;4.88;;;26.50;99.90;;;;;;5010150;28;20082;-79
2021/08/21 12:10:51;;;;;;;5.25;4.40;;;26.70;99.90;;;;;;5022808;28;20404;-76
2021/08/21 12:13:20;;;;;;;6.00;5.40;;;26.90;99.90;;;;;;5012075;28;20176;-77
2021/08/21 12:15:49;;;;;;;5.40;4.82;;;26.90;99.90;;;;;;5007940;28;20545;-79
2021/08/21 12:18:20;;;;;;;5.78;4.63;;;27.00;99.90;;;;;;5012313;28;20053;-81
2021/08/21 12:20:47;;;;;;;5.60;4.90;;;27.10;99.90;;;;;;5005679;28;20114;-81
2021/08/21 12:23:14;;;;;;;5.88;4.60;;;26.90;99.90;;;;;;5016507;28;20335;-82
2021/08/21 12:26:00;;;;;;;5.35;4.75;;;26.90;99.90;;;;;;5002900;28;20050;-81
2021/08/21 12:28:41;;;;;;;7.75;4.63;;;27.00;99.90;;;;;;5012163;28;20056;-82
2021/08/21 12:31:12;;;;;;;6.07;5.00;;;26.80;99.90;;;;;;5016634;28;20053;-81
2021/08/21 12:33:43;;;;;;;5.40;4.90;;;26.80;99.90;;;;;;5002922;28;20053;-81
2021/08/21 12:36:16;;;;;;;6.40;5.22;;;26.70;99.90;;;;;;5011647;28;20185;-80
2021/08/21 12:39:02;;;;;;;6.93;4.80;;;26.80;99.90;;;;;;5007603;28;20145;-81
2021/08/21 12:41:30;;;;;;;5.53;4.82;;;26.70;99.90;;;;;;5012359;28;20060;-81
2021/08/21 12:44:05;;;;;;;7.93;5.45;;;26.50;99.90;;;;;;5009088;28;20125;-81
2021/08/21 12:46:32;;;;;;;10.05;5.72;;;26.50;99.90;;;;;;5009579;28;20042;-81
2021/08/21 12:49:07;;;;;;;7.25;5.10;;;26.50;99.90;;;;;;4999808;28;20046;-80
2021/08/21 12:51:40;;;;;;;7.32;5.28;;;26.70;99.90;;;;;;4999789;28;20105;-81
2021/08/21 12:54:08;;;;;;;6.25;4.90;;;26.80;99.90;;;;;;4999811;28;20098;-81